Time;durP1;ratioP1;P1;durP2;ratioP2;P2;SDS_P1;SDS_P2;PMS_P1;PMS_P2;Temp;Humidity;BMP_temperature;BMP_pressure;BME280_temperature;BME280_humidity;BME280_pressure;Samples;Min_cycle;Max_cycle;Signal;HPM_P1;HPM_P2
2022/08/03 00:01:47;;;;;;;;;2.00;2.00;;;;;;;;5052604;28;45360;-64
2022/08/03 00:04:12;;;;;;;;;2.50;2.50;;;;;;;;5072453;28;45372;-64
2022/08/03 00:06:37;;;;;;;;;4.00;4.00;;;;;;;;5072615;28;46227;-64
2022/08/03 00:09:03;;;;;;;;;4.00;4.00;;;;;;;;5072584;28;45241;-64
2022/08/03 00:11:29;;;;;;;;;2.25;2.25;;;;;;;;5072552;27;45247;-63
2022/08/03 00:13:54;;;;;;;;;1.50;1.50;;;;;;;;5072602;28;45337;-63
2022/08/03 00:16:19;;;;;;;;;4.25;4.25;;;;;;;;5072458;28;46483;-63
2022/08/03 00:18:44;;;;;;;;;2.00;2.00;;;;;;;;5071931;28;45291;-64
2022/08/03 00:21:10;;;;;;;;;4.25;3.25;;;;;;;;5072557;28;45687;-64
2022/08/03 00:23:35;;;;;;;;;3.00;3.00;;;;;;;;5072408;28;45280;-64
2022/08/03 00:26:01;;;;;;;;;3.25;3.00;;;;;;;;5071968;28;46186;-64
2022/08/03 00:28:26;;;;;;;;;4.00;4.00;;;;;;;;5054098;28;46099;-63
2022/08/03 00:30:52;;;;;;;;;5.00;2.25;;;;;;;;5073530;28;45370;-64
2022/08/03 00:33:17;;;;;;;;;2.25;2.25;;;;;;;;5075553;28;45249;-64
2022/08/03 00:35:42;;;;;;;;;3.00;3.00;;;;;;;;5057160;27;47496;-64
2022/08/03 00:38:08;;;;;;;;;4.25;3.75;;;;;;;;5075284;28;45422;-64
2022/08/03 00:40:33;;;;;;;;;3.50;3.00;;;;;;;;5075509;28;45389;-64
2022/08/03 00:43:00;;;;;;;;;2.00;2.00;;;;;;;;5075231;28;45428;-64
2022/08/03 00:45:26;;;;;;;;;2.50;2.50;;;;;;;;5075170;28;46545;-64
2022/08/03 00:47:51;;;;;;;;;5.25;2.50;;;;;;;;5075181;28;45429;-63
2022/08/03 00:50:17;;;;;;;;;2.75;2.50;;;;;;;;5075285;28;45440;-63
2022/08/03 00:52:43;;;;;;;;;1.75;1.75;;;;;;;;5057012;28;45468;-63
2022/08/03 00:55:08;;;;;;;;;1.00;1.00;;;;;;;;5075034;28;46603;-64
2022/08/03 00:57:34;;;;;;;;;1.00;1.00;;;;;;;;5075042;28;45425;-64
2022/08/03 00:59:59;;;;;;;;;2.75;2.00;;;;;;;;5075296;28;45484;-63
2022/08/03 01:02:25;;;;;;;;;1.25;1.00;;;;;;;;5075061;28;45382;-63
2022/08/03 01:04:50;;;;;;;;;1.75;1.00;;;;;;;;5074977;28;45722;-63
2022/08/03 01:07:20;;;;;;;;;2.75;1.00;;;;;;;;5075137;28;45285;-64
2022/08/03 01:09:51;;;;;;;;;1.50;1.00;;;;;;;;5075230;28;45353;-64
2022/08/03 01:12:20;;;;;;;;;3.00;2.00;;;;;;;;5075142;28;45386;-63
2022/08/03 01:14:49;;;;;;;;;0.50;0.50;;;;;;;;5074817;28;45626;-64
2022/08/03 01:17:18;;;;;;;;;1.00;1.00;;;;;;;;5056625;27;45428;-64
2022/08/03 01:19:46;;;;;;;;;2.00;2.00;;;;;;;;5056888;28;45316;-64
2022/08/03 01:22:11;;;;;;;;;2.25;1.50;;;;;;;;5074876;28;45244;-63
2022/08/03 01:24:49;;;;;;;;;1.50;1.00;;;;;;;;5074645;28;45602;-64
2022/08/03 01:27:17;;;;;;;;;3.00;2.00;;;;;;;;5056653;27;45320;-64
2022/08/03 01:29:49;;;;;;;;;1.00;1.00;;;;;;;;5074852;28;45244;-64
2022/08/03 01:32:17;;;;;;;;;1.00;1.00;;;;;;;;5074763;28;45337;-63
2022/08/03 01:34:44;;;;;;;;;2.00;1.00;;;;;;;;5074468;28;46935;-63
2022/08/03 01:37:11;;;;;;;;;2.00;2.00;;;;;;;;5074671;28;45380;-63
2022/08/03 01:39:38;;;;;;;;;2.00;1.25;;;;;;;;5074668;28;45368;-63
2022/08/03 01:42:05;;;;;;;;;1.25;1.25;;;;;;;;5056101;27;45218;-63
2022/08/03 01:44:33;;;;;;;;;0.00;0.00;;;;;;;;5074500;28;47777;-64
2022/08/03 01:46:59;;;;;;;;;3.00;2.00;;;;;;;;5056343;27;45418;-63
2022/08/03 01:49:25;;;;;;;;;1.00;1.00;;;;;;;;5074676;28;45331;-62
2022/08/03 01:51:51;;;;;;;;;1.00;1.00;;;;;;;;5056490;28;45335;-63
2022/08/03 01:54:17;;;;;;;;;1.25;1.25;;;;;;;;5056128;28;45960;-63
2022/08/03 01:56:43;;;;;;;;;1.00;1.00;;;;;;;;5074377;28;45344;-63
2022/08/03 01:59:09;;;;;;;;;0.00;0.00;;;;;;;;5056439;27;45439;-64
2022/08/03 02:01:36;;;;;;;;;1.00;1.00;;;;;;;;5074554;28;45231;-64
2022/08/03 02:04:02;;;;;;;;;1.25;1.00;;;;;;;;5074221;28;45799;-63
2022/08/03 02:06:29;;;;;;;;;1.00;1.00;;;;;;;;5055943;28;45270;-64
2022/08/03 02:08:56;;;;;;;;;1.00;1.00;;;;;;;;5074496;28;45384;-63
2022/08/03 02:11:22;;;;;;;;;0.00;0.00;;;;;;;;5056442;27;45558;-64
2022/08/03 02:13:48;;;;;;;;;1.00;1.00;;;;;;;;5074198;28;45720;-65
2022/08/03 02:16:13;;;;;;;;;2.00;2.00;;;;;;;;5074089;28;45316;-63
2022/08/03 02:18:42;;;;;;;;;1.25;1.25;;;;;;;;5074294;28;45198;-63
2022/08/03 02:21:09;;;;;;;;;1.25;1.25;;;;;;;;5074383;28;45425;-64
2022/08/03 02:23:34;;;;;;;;;1.25;1.00;;;;;;;;5073869;28;45818;-64
2022/08/03 02:26:02;;;;;;;;;1.00;1.00;;;;;;;;5073888;28;45368;-63
2022/08/03 02:28:39;;;;;;;;;1.00;1.00;;;;;;;;5074254;28;45369;-63
2022/08/03 02:31:10;;;;;;;;;2.50;1.00;;;;;;;;5056188;27;45413;-64
2022/08/03 02:33:36;;;;;;;;;3.00;2.00;;;;;;;;5073865;28;46495;-64
2022/08/03 02:36:03;;;;;;;;;0.50;0.50;;;;;;;;5073722;28;45264;-64
2022/08/03 02:38:30;;;;;;;;;1.25;1.25;;;;;;;;5073853;28;45398;-64
2022/08/03 02:40:57;;;;;;;;;1.50;1.00;;;;;;;;5074145;28;45357;-64
2022/08/03 02:43:23;;;;;;;;;1.25;1.00;;;;;;;;5073710;28;46621;-64
2022/08/03 02:45:50;;;;;;;;;1.50;1.00;;;;;;;;5073801;28;45351;-63
2022/08/03 02:48:17;;;;;;;;;1.00;1.00;;;;;;;;5073779;28;45401;-63
2022/08/03 02:50:43;;;;;;;;;2.00;1.00;;;;;;;;5073872;28;45406;-64
2022/08/03 02:53:09;;;;;;;;;1.00;1.00;;;;;;;;5072763;28;45925;-63
2022/08/03 02:55:35;;;;;;;;;1.50;1.00;;;;;;;;5073755;28;45291;-64
2022/08/03 02:58:01;;;;;;;;;1.00;1.00;;;;;;;;5073825;28;45333;-64
2022/08/03 03:00:27;;;;;;;;;1.00;1.00;;;;;;;;5073567;28;45482;-63
2022/08/03 03:02:54;;;;;;;;;1.00;1.00;;;;;;;;5073599;28;46353;-63
2022/08/03 03:05:19;;;;;;;;;1.00;1.00;;;;;;;;5073572;27;45447;-64
2022/08/03 03:07:45;;;;;;;;;1.00;1.00;;;;;;;;5073648;28;45369;-64
2022/08/03 03:10:10;;;;;;;;;1.00;1.00;;;;;;;;5073593;28;45314;-63
2022/08/03 03:12:37;;;;;;;;;2.00;2.00;;;;;;;;5073354;28;46354;-63
2022/08/03 03:15:04;;;;;;;;;2.25;0.00;;;;;;;;5073475;28;45308;-64
2022/08/03 03:17:30;;;;;;;;;1.00;1.00;;;;;;;;5073205;27;45202;-63
2022/08/03 03:19:56;;;;;;;;;2.00;1.00;;;;;;;;5073543;28;45430;-63
2022/08/03 03:22:22;;;;;;;;;1.00;1.00;;;;;;;;5073124;28;45691;-64
2022/08/03 03:24:48;;;;;;;;;3.75;1.00;;;;;;;;5073165;28;45399;-63
2022/08/03 03:27:14;;;;;;;;;0.00;0.00;;;;;;;;5073528;28;45427;-63
2022/08/03 03:29:39;;;;;;;;;2.00;2.00;;;;;;;;5073255;28;45372;-63
2022/08/03 03:32:05;;;;;;;;;1.00;1.00;;;;;;;;5073194;28;46356;-63
2022/08/03 03:34:30;;;;;;;;;2.00;2.00;;;;;;;;5073059;28;45418;-64
2022/08/03 03:36:55;;;;;;;;;2.00;2.00;;;;;;;;5073366;28;45407;-64
2022/08/03 03:39:20;;;;;;;;;2.00;2.00;;;;;;;;5073233;28;45361;-64
2022/08/03 03:41:46;;;;;;;;;2.00;1.00;;;;;;;;5073035;28;45769;-64
2022/08/03 03:44:11;;;;;;;;;3.00;1.00;;;;;;;;5072944;28;45474;-64
2022/08/03 03:46:37;;;;;;;;;1.50;1.50;;;;;;;;5072949;28;45365;-63
2022/08/03 03:49:04;;;;;;;;;1.00;1.00;;;;;;;;5055044;27;45659;-63
2022/08/03 03:51:29;;;;;;;;;2.25;1.00;;;;;;;;5072634;28;45332;-64
2022/08/03 03:53:58;;;;;;;;;2.25;1.00;;;;;;;;5072959;28;45325;-64
2022/08/03 03:56:23;;;;;;;;;1.00;1.00;;;;;;;;5055027;27;45375;-63
2022/08/03 03:58:49;;;;;;;;;2.00;2.00;;;;;;;;5072859;28;45390;-63
2022/08/03 04:01:14;;;;;;;;;2.00;1.00;;;;;;;;5054782;27;47279;-63
2022/08/03 04:03:39;;;;;;;;;1.75;0.75;;;;;;;;5072731;28;45396;-63
2022/08/03 04:11:50;;;;;;;;;1.25;1.00;;;;;;;;4993392;27;46090;-63
2022/08/03 04:14:22;;;;;;;;;0.50;0.50;;;;;;;;4976807;28;45216;-63
2022/08/03 04:17:03;;;;;;;;;2.00;1.00;;;;;;;;4993641;28;45244;-63
2022/08/03 04:19:31;;;;;;;;;1.50;1.00;;;;;;;;4993540;27;45373;-63
2022/08/03 04:22:00;;;;;;;;;1.00;1.00;;;;;;;;4993567;27;47393;-63
2022/08/03 04:24:31;;;;;;;;;2.25;1.00;;;;;;;;4993540;28;45244;-63
2022/08/03 04:26:58;;;;;;;;;2.50;2.00;;;;;;;;4993261;27;45366;-63
2022/08/03 04:29:24;;;;;;;;;1.00;1.00;;;;;;;;5079935;27;45503;-63
2022/08/03 04:31:52;;;;;;;;;1.00;1.00;;;;;;;;4993482;27;46739;-63
2022/08/03 04:34:17;;;;;;;;;1.00;1.00;;;;;;;;4993281;27;45401;-63
2022/08/03 04:36:48;;;;;;;;;2.50;2.50;;;;;;;;4993658;28;45306;-63
2022/08/03 04:39:17;;;;;;;;;1.25;1.25;;;;;;;;4993903;28;45539;-64
2022/08/03 04:41:43;;;;;;;;;1.75;1.75;;;;;;;;4993442;27;45396;-64
2022/08/03 04:44:09;;;;;;;;;2.00;2.00;;;;;;;;5079821;27;45583;-64
2022/08/03 04:46:37;;;;;;;;;1.75;1.25;;;;;;;;4993496;28;45449;-64
2022/08/03 04:49:04;;;;;;;;;1.50;1.50;;;;;;;;5047503;28;45699;-64
2022/08/03 04:51:30;;;;;;;;;2.50;2.50;;;;;;;;5054923;28;45671;-64
2022/08/03 04:53:55;;;;;;;;;1.75;1.75;;;;;;;;5055114;28;45388;-64
2022/08/03 04:56:20;;;;;;;;;2.00;2.00;;;;;;;;5055024;28;45376;-64
2022/08/03 04:58:45;;;;;;;;;2.75;2.75;;;;;;;;5055206;28;45341;-64
2022/08/03 05:01:11;;;;;;;;;2.75;2.75;;;;;;;;5054846;28;45803;-65
2022/08/03 05:03:36;;;;;;;;;3.00;3.00;;;;;;;;5054809;28;45380;-64
2022/08/03 05:06:01;;;;;;;;;2.00;2.00;;;;;;;;5055074;28;45344;-64
2022/08/03 05:08:27;;;;;;;;;2.00;2.00;;;;;;;;5055031;28;45348;-64
2022/08/03 05:10:52;;;;;;;;;2.50;2.50;;;;;;;;5054811;28;45644;-65
2022/08/03 05:13:17;;;;;;;;;3.00;3.00;;;;;;;;5054933;28;45444;-64
2022/08/03 05:15:42;;;;;;;;;4.00;3.75;;;;;;;;5054513;28;45349;-64
2022/08/03 05:18:08;;;;;;;;;5.50;3.75;;;;;;;;5054209;27;45328;-65
2022/08/03 05:20:33;;;;;;;;;5.00;4.00;;;;;;;;5053458;28;46091;-64
2022/08/03 05:23:00;;;;;;;;;4.50;3.00;;;;;;;;5054528;28;45461;-64
2022/08/03 05:25:25;;;;;;;;;3.00;3.00;;;;;;;;5036715;28;45446;-63
2022/08/03 05:27:50;;;;;;;;;2.50;2.25;;;;;;;;5073984;28;45352;-62
2022/08/03 05:30:16;;;;;;;;;2.75;2.75;;;;;;;;5074741;28;46435;-62
2022/08/03 05:32:41;;;;;;;;;4.00;4.00;;;;;;;;5056880;27;45361;-63
2022/08/03 05:35:06;;;;;;;;;2.00;2.00;;;;;;;;5074887;28;45288;-64
2022/08/03 05:37:31;;;;;;;;;3.00;3.00;;;;;;;;5074871;28;45398;-63
2022/08/03 05:39:56;;;;;;;;;3.00;3.00;;;;;;;;5074671;28;46371;-63
2022/08/03 05:42:22;;;;;;;;;4.25;4.25;;;;;;;;5074633;28;45361;-63
2022/08/03 05:44:47;;;;;;;;;5.00;5.00;;;;;;;;5074505;28;45138;-62
2022/08/03 05:47:12;;;;;;;;;8.50;5.00;;;;;;;;5074851;28;45442;-64
2022/08/03 05:49:37;;;;;;;;;6.00;5.00;;;;;;;;5074449;28;45891;-64
2022/08/03 05:52:03;;;;;;;;;4.00;4.00;;;;;;;;5074471;28;45342;-65
2022/08/03 05:54:28;;;;;;;;;5.25;5.25;;;;;;;;5074611;28;45351;-63
2022/08/03 05:56:53;;;;;;;;;7.00;4.50;;;;;;;;5074454;28;45211;-63
2022/08/03 05:59:18;;;;;;;;;5.00;5.00;;;;;;;;5074517;28;45284;-63
2022/08/03 06:01:43;;;;;;;;;7.25;4.00;;;;;;;;5074492;28;45234;-63
2022/08/03 06:04:09;;;;;;;;;5.75;3.75;;;;;;;;5056327;28;45322;-64
2022/08/03 06:06:34;;;;;;;;;7.00;5.50;;;;;;;;5074564;28;45200;-63
2022/08/03 06:08:59;;;;;;;;;5.25;4.75;;;;;;;;5074168;28;46107;-63
2022/08/03 06:11:24;;;;;;;;;4.25;4.25;;;;;;;;5056021;28;45351;-63
2022/08/03 06:13:49;;;;;;;;;6.00;5.00;;;;;;;;5056305;27;45268;-64
2022/08/03 06:16:15;;;;;;;;;8.25;5.50;;;;;;;;5039458;28;45416;-62
2022/08/03 06:18:40;;;;;;;;;4.00;4.00;;;;;;;;5073826;28;45507;-63
2022/08/03 06:21:05;;;;;;;;;6.75;5.50;;;;;;;;5074289;27;45227;-63
2022/08/03 06:23:30;;;;;;;;;6.00;5.50;;;;;;;;5074285;28;45430;-64
2022/08/03 06:25:55;;;;;;;;;6.50;6.00;;;;;;;;5074126;28;45363;-64
2022/08/03 06:28:21;;;;;;;;;5.25;5.25;;;;;;;;5072725;28;46292;-63
2022/08/03 06:30:46;;;;;;;;;5.00;4.00;;;;;;;;5074311;28;45238;-64
2022/08/03 06:33:11;;;;;;;;;3.00;3.00;;;;;;;;5056056;28;45772;-63
2022/08/03 06:35:37;;;;;;;;;6.00;5.00;;;;;;;;5074069;28;45429;-64
2022/08/03 06:38:02;;;;;;;;;5.75;5.00;;;;;;;;5055556;28;47404;-63
2022/08/03 06:40:30;;;;;;;;;6.00;5.00;;;;;;;;5055554;28;45495;-63
2022/08/03 06:42:56;;;;;;;;;5.75;5.00;;;;;;;;5073867;28;45384;-63
2022/08/03 06:45:22;;;;;;;;;4.75;4.75;;;;;;;;5073689;28;45323;-63
2022/08/03 06:47:58;;;;;;;;;5.00;4.00;;;;;;;;5073758;28;45777;-63
2022/08/03 06:50:23;;;;;;;;;6.00;6.00;;;;;;;;5073594;28;45377;-64
2022/08/03 06:52:48;;;;;;;;;4.00;4.00;;;;;;;;5055521;28;45240;-63
2022/08/03 06:55:14;;;;;;;;;4.00;3.25;;;;;;;;5055569;28;45337;-64
2022/08/03 06:57:39;;;;;;;;;5.25;4.25;;;;;;;;5055427;28;47168;-63
2022/08/03 07:00:04;;;;;;;;;4.00;4.00;;;;;;;;5055226;28;45404;-64
2022/08/03 07:02:30;;;;;;;;;4.50;4.50;;;;;;;;5073763;28;45209;-63
2022/08/03 07:04:55;;;;;;;;;5.00;5.00;;;;;;;;5073349;28;45161;-63
2022/08/03 07:07:20;;;;;;;;;3.75;3.00;;;;;;;;5073372;28;46122;-63
2022/08/03 07:09:47;;;;;;;;;4.00;4.00;;;;;;;;5073558;28;45223;-62
2022/08/03 07:12:12;;;;;;;;;4.00;4.00;;;;;;;;5073578;28;45321;-63
2022/08/03 07:14:37;;;;;;;;;5.50;5.50;;;;;;;;5073548;28;45213;-63
2022/08/03 07:17:02;;;;;;;;;10.00;9.00;;;;;;;;5073071;27;46145;-63
2022/08/03 07:19:27;;;;;;;;;7.00;5.75;;;;;;;;5073671;28;45491;-63
2022/08/03 07:21:52;;;;;;;;;8.50;7.50;;;;;;;;5055560;28;45370;-63
2022/08/03 07:24:18;;;;;;;;;5.50;5.50;;;;;;;;5073165;28;45339;-63
2022/08/03 07:26:43;;;;;;;;;5.00;5.00;;;;;;;;5072799;28;46483;-63
2022/08/03 07:29:08;;;;;;;;;9.25;6.75;;;;;;;;5073165;28;45476;-64
2022/08/03 07:31:33;;;;;;;;;6.25;6.25;;;;;;;;5073394;28;45303;-62
2022/08/03 07:33:59;;;;;;;;;5.75;4.50;;;;;;;;5073181;28;45421;-63
2022/08/03 07:36:24;;;;;;;;;6.50;6.50;;;;;;;;5073051;28;46470;-64
2022/08/03 07:38:49;;;;;;;;;5.25;5.25;;;;;;;;5073063;28;45536;-63
2022/08/03 07:41:15;;;;;;;;;8.00;5.00;;;;;;;;5073091;28;45401;-62
2022/08/03 07:43:40;;;;;;;;;7.75;6.50;;;;;;;;5072907;28;45430;-62
2022/08/03 07:46:05;;;;;;;;;6.00;5.00;;;;;;;;5072775;28;46108;-62
2022/08/03 07:48:30;;;;;;;;;5.00;5.00;;;;;;;;5072854;28;45579;-62
2022/08/03 07:50:55;;;;;;;;;7.00;5.75;;;;;;;;5073199;28;45448;-63
2022/08/03 07:53:21;;;;;;;;;7.00;5.75;;;;;;;;5072896;28;45487;-63
2022/08/03 07:55:46;;;;;;;;;8.00;5.00;;;;;;;;5072570;28;46180;-62
2022/08/03 07:58:14;;;;;;;;;7.50;6.00;;;;;;;;5072745;28;45379;-63
2022/08/03 08:00:40;;;;;;;;;9.75;7.00;;;;;;;;5072824;28;45383;-64
2022/08/03 08:03:05;;;;;;;;;5.00;5.00;;;;;;;;5072885;28;45280;-63
2022/08/03 08:05:30;;;;;;;;;7.00;6.50;;;;;;;;5072565;28;45626;-62
2022/08/03 08:07:55;;;;;;;;;5.50;5.25;;;;;;;;5072636;28;45388;-63
2022/08/03 08:10:21;;;;;;;;;6.75;6.75;;;;;;;;5054546;28;45378;-62
2022/08/03 08:12:47;;;;;;;;;7.50;7.00;;;;;;;;5072479;28;45639;-63
2022/08/03 08:15:12;;;;;;;;;5.50;5.00;;;;;;;;5072702;28;46501;-64
2022/08/03 08:17:45;;;;;;;;;8.00;6.00;;;;;;;;5072274;27;45320;-63
2022/08/03 08:20:14;;;;;;;;;7.50;6.00;;;;;;;;5072707;28;45355;-64
2022/08/03 08:22:39;;;;;;;;;6.75;6.75;;;;;;;;5072309;28;45352;-65
2022/08/03 08:25:05;;;;;;;;;5.00;5.00;;;;;;;;5053992;28;46330;-63
2022/08/03 08:27:30;;;;;;;;;5.25;5.25;;;;;;;;5072172;28;45379;-63
2022/08/03 08:29:55;;;;;;;;;5.00;4.75;;;;;;;;5072652;28;45369;-64
2022/08/03 08:32:20;;;;;;;;;7.00;6.50;;;;;;;;5072390;28;45325;-64
2022/08/03 08:34:45;;;;;;;;;6.25;5.50;;;;;;;;5072454;28;46608;-64
2022/08/03 08:37:10;;;;;;;;;6.25;5.00;;;;;;;;5072360;28;45462;-63
2022/08/03 08:39:36;;;;;;;;;3.75;3.75;;;;;;;;5054181;28;45465;-63
2022/08/03 08:42:01;;;;;;;;;5.00;5.00;;;;;;;;5053929;28;45448;-62
2022/08/03 08:44:27;;;;;;;;;5.00;4.00;;;;;;;;5071832;28;46119;-62
2022/08/03 08:46:54;;;;;;;;;2.50;2.50;;;;;;;;5072113;28;45498;-62
2022/08/03 08:49:22;;;;;;;;;5.00;5.00;;;;;;;;5053852;28;45359;-62
2022/08/03 08:51:49;;;;;;;;;1.00;1.00;;;;;;;;5073175;28;45284;-62
2022/08/03 08:54:17;;;;;;;;;4.25;4.25;;;;;;;;5057029;27;48680;-62
2022/08/03 08:56:43;;;;;;;;;3.75;3.75;;;;;;;;5075082;28;45321;-62
2022/08/03 08:59:09;;;;;;;;;4.25;4.25;;;;;;;;5075092;28;45244;-61
2022/08/03 09:01:34;;;;;;;;;5.00;5.00;;;;;;;;5075153;28;45206;-61
2022/08/03 09:03:59;;;;;;;;;5.00;4.75;;;;;;;;5074969;28;45685;-63
2022/08/03 09:06:24;;;;;;;;;3.00;3.00;;;;;;;;5073155;28;45556;-63
2022/08/03 09:08:49;;;;;;;;;7.50;5.00;;;;;;;;5073192;28;45306;-63
2022/08/03 09:11:15;;;;;;;;;3.25;3.25;;;;;;;;5072807;28;45757;-64
2022/08/03 09:13:40;;;;;;;;;4.00;3.75;;;;;;;;5072780;28;46460;-63
2022/08/03 09:16:13;;;;;;;;;5.00;4.25;;;;;;;;5073128;28;45525;-62
2022/08/03 09:18:39;;;;;;;;;5.00;3.00;;;;;;;;5071832;28;45471;-63
2022/08/03 09:21:24;;;;;;;;;4.50;4.50;;;;;;;;5071300;28;45638;-64
2022/08/03 09:23:50;;;;;;;;;5.00;3.00;;;;;;;;5071505;28;45756;-64
2022/08/03 09:26:19;;;;;;;;;4.50;4.50;;;;;;;;5071242;28;45359;-63
2022/08/03 09:28:44;;;;;;;;;1.75;1.75;;;;;;;;5072082;28;45412;-63
2022/08/03 09:31:09;;;;;;;;;4.00;3.25;;;;;;;;5071971;28;45393;-62
2022/08/03 09:33:45;;;;;;;;;2.25;2.25;;;;;;;;5070870;28;45472;-62
2022/08/03 09:36:30;;;;;;;;;3.25;2.25;;;;;;;;5071149;28;45418;-65
2022/08/03 09:39:06;;;;;;;;;4.75;2.25;;;;;;;;5071340;28;45391;-63
2022/08/03 09:41:32;;;;;;;;;2.25;2.25;;;;;;;;5071361;28;45449;-64
2022/08/03 09:43:57;;;;;;;;;2.75;2.75;;;;;;;;5053099;28;47243;-64
2022/08/03 09:46:22;;;;;;;;;3.75;2.00;;;;;;;;5070907;28;45464;-64
2022/08/03 09:48:48;;;;;;;;;6.00;4.50;;;;;;;;5071841;28;45457;-63
2022/08/03 09:51:14;;;;;;;;;1.50;1.50;;;;;;;;5071417;28;45445;-64
2022/08/03 09:53:43;;;;;;;;;3.50;3.50;;;;;;;;5071263;28;46374;-64
2022/08/03 09:56:08;;;;;;;;;2.50;2.50;;;;;;;;5052890;28;45507;-65
2022/08/03 09:58:43;;;;;;;;;2.00;2.00;;;;;;;;5071116;28;45588;-63
2022/08/03 10:01:08;;;;;;;;;2.00;2.00;;;;;;;;5071397;28;45519;-64
2022/08/03 10:03:36;;;;;;;;;3.00;2.00;;;;;;;;5052561;28;47560;-62
2022/08/03 10:06:15;;;;;;;;;3.00;2.00;;;;;;;;5071197;28;45402;-64
2022/08/03 10:08:40;;;;;;;;;3.25;3.00;;;;;;;;5053285;28;45429;-62
2022/08/03 10:11:05;;;;;;;;;5.50;2.75;;;;;;;;5053168;28;45427;-63
2022/08/03 10:13:30;;;;;;;;;1.75;1.00;;;;;;;;5070440;28;45487;-63
2022/08/03 10:15:56;;;;;;;;;2.00;1.00;;;;;;;;5071368;28;45696;-63
2022/08/03 10:18:21;;;;;;;;;2.25;2.25;;;;;;;;5053103;28;45438;-62
2022/08/03 10:20:54;;;;;;;;;2.50;2.50;;;;;;;;5071392;28;45311;-63
2022/08/03 10:23:20;;;;;;;;;1.75;1.75;;;;;;;;5070809;28;46698;-63
2022/08/03 10:25:47;;;;;;;;;2.00;2.00;;;;;;;;5070802;28;45519;-64
2022/08/03 10:28:14;;;;;;;;;1.25;1.25;;;;;;;;5071263;28;45710;-63
2022/08/03 10:30:41;;;;;;;;;2.25;2.00;;;;;;;;5071144;28;45483;-64
2022/08/03 10:33:11;;;;;;;;;2.00;1.50;;;;;;;;5070921;28;46493;-64
2022/08/03 10:35:38;;;;;;;;;4.75;1.75;;;;;;;;5071102;28;45516;-63
2022/08/03 10:38:08;;;;;;;;;1.75;1.75;;;;;;;;5070682;28;45435;-65
2022/08/03 10:40:33;;;;;;;;;1.75;1.25;;;;;;;;5071000;28;45331;-63
2022/08/03 10:43:06;;;;;;;;;1.00;1.00;;;;;;;;5070590;28;46743;-63
2022/08/03 10:45:33;;;;;;;;;0.25;0.25;;;;;;;;5070911;28;45478;-63
2022/08/03 10:47:58;;;;;;;;;2.25;2.25;;;;;;;;5070883;28;45686;-64
2022/08/03 10:50:24;;;;;;;;;2.25;2.25;;;;;;;;5070575;28;45467;-64
2022/08/03 10:52:56;;;;;;;;;3.75;2.50;;;;;;;;5070150;28;46064;-63
2022/08/03 10:58:14;;;;;;;;;2.00;2.00;;;;;;;;5071401;28;45453;-65
2022/08/03 11:00:49;;;;;;;;;1.50;1.50;;;;;;;;5070474;28;45460;-64
2022/08/03 11:03:15;;;;;;;;;2.00;2.00;;;;;;;;5070188;28;45646;-62
2022/08/03 11:05:41;;;;;;;;;1.25;1.25;;;;;;;;5069954;28;45356;-65
2022/08/03 11:08:18;;;;;;;;;2.50;1.50;;;;;;;;5070796;28;45447;-64
2022/08/03 11:10:44;;;;;;;;;3.25;2.00;;;;;;;;5070545;28;45519;-64
2022/08/03 11:13:09;;;;;;;;;2.00;1.00;;;;;;;;5070410;28;45460;-62
2022/08/03 11:15:35;;;;;;;;;1.75;1.75;;;;;;;;5069402;28;45380;-64
2022/08/03 11:18:07;;;;;;;;;1.75;1.75;;;;;;;;5071228;27;45417;-64
2022/08/03 11:20:51;;;;;;;;;2.75;2.00;;;;;;;;5071220;28;45296;-63
2022/08/03 11:23:18;;;;;;;;;1.25;1.25;;;;;;;;5072020;28;45359;-63
2022/08/03 11:26:02;;;;;;;;;1.00;1.00;;;;;;;;5053446;28;45409;-63
2022/08/03 11:28:27;;;;;;;;;1.50;1.50;;;;;;;;5072084;28;45320;-62
2022/08/03 11:30:53;;;;;;;;;1.00;1.00;;;;;;;;5072043;28;45345;-63
2022/08/03 11:33:28;;;;;;;;;1.75;1.75;;;;;;;;5071953;28;46283;-63
2022/08/03 11:35:58;;;;;;;;;1.25;1.25;;;;;;;;5071973;28;45475;-62
2022/08/03 11:38:23;;;;;;;;;1.75;1.75;;;;;;;;5071659;28;45446;-62
2022/08/03 11:40:52;;;;;;;;;2.00;1.75;;;;;;;;5071553;28;45377;-61
2022/08/03 11:43:20;;;;;;;;;2.25;1.75;;;;;;;;5071280;28;46485;-62
2022/08/03 11:45:55;;;;;;;;;1.75;1.75;;;;;;;;5071600;28;45341;-63
2022/08/03 11:48:21;;;;;;;;;3.75;3.75;;;;;;;;5071465;28;45442;-63
2022/08/03 11:50:46;;;;;;;;;2.25;2.25;;;;;;;;5053256;28;45422;-62
2022/08/03 11:53:17;;;;;;;;;1.75;1.75;;;;;;;;5071535;28;45963;-63
2022/08/03 11:55:45;;;;;;;;;2.00;2.00;;;;;;;;5071573;28;45385;-62
2022/08/03 11:58:17;;;;;;;;;1.25;1.25;;;;;;;;5071685;28;45476;-62
2022/08/03 12:00:42;;;;;;;;;1.75;1.75;;;;;;;;5053176;28;45459;-62
2022/08/03 12:03:10;;;;;;;;;1.75;1.50;;;;;;;;5071059;28;46388;-61
2022/08/03 12:05:56;;;;;;;;;2.25;2.00;;;;;;;;5071370;28;45447;-62
2022/08/03 12:08:26;;;;;;;;;3.25;3.00;;;;;;;;5071160;28;45268;-62
2022/08/03 12:10:52;;;;;;;;;3.00;3.00;;;;;;;;5053192;28;45375;-62
2022/08/03 12:13:18;;;;;;;;;2.50;2.50;;;;;;;;5071077;28;45329;-63
2022/08/03 12:15:49;;;;;;;;;2.00;2.00;;;;;;;;5071215;28;45364;-63
2022/08/03 12:18:15;;;;;;;;;3.25;2.50;;;;;;;;5053077;28;45401;-61
2022/08/03 12:20:41;;;;;;;;;3.00;3.00;;;;;;;;5052851;28;45437;-61
2022/08/03 12:23:06;;;;;;;;;2.00;2.00;;;;;;;;5071080;28;46446;-62
2022/08/03 12:25:33;;;;;;;;;2.00;2.00;;;;;;;;5052928;27;45957;-63
2022/08/03 12:28:05;;;;;;;;;1.75;1.75;;;;;;;;5073757;28;45343;-62
2022/08/03 12:30:31;;;;;;;;;2.25;2.25;;;;;;;;5074320;28;45354;-62
2022/08/03 12:32:56;;;;;;;;;2.75;2.00;;;;;;;;5074387;28;45381;-63
2022/08/03 12:35:23;;;;;;;;;3.25;2.50;;;;;;;;5056330;27;45503;-63
2022/08/03 12:37:48;;;;;;;;;2.25;2.25;;;;;;;;5074312;28;45397;-62
2022/08/03 12:40:14;;;;;;;;;2.25;2.25;;;;;;;;5055853;28;45378;-63
2022/08/03 12:42:40;;;;;;;;;4.25;2.50;;;;;;;;5055590;28;46896;-62
2022/08/03 12:45:25;;;;;;;;;3.00;3.00;;;;;;;;5074018;28;45397;-62
2022/08/03 12:47:53;;;;;;;;;3.25;2.75;;;;;;;;5074297;28;45414;-62
2022/08/03 12:50:25;;;;;;;;;1.75;1.75;;;;;;;;5074059;28;45426;-62
2022/08/03 12:52:50;;;;;;;;;5.75;2.75;;;;;;;;5073750;28;46339;-62
2022/08/03 12:55:20;;;;;;;;;2.25;2.25;;;;;;;;5073749;28;45334;-62
2022/08/03 12:57:45;;;;;;;;;4.00;3.00;;;;;;;;5074117;28;45380;-62
2022/08/03 13:00:13;;;;;;;;;2.75;2.00;;;;;;;;5073985;28;45396;-62
2022/08/03 13:02:38;;;;;;;;;2.50;2.50;;;;;;;;5073752;28;46548;-62
2022/08/03 13:05:09;;;;;;;;;2.00;2.00;;;;;;;;5073921;28;45401;-62
2022/08/03 13:07:39;;;;;;;;;1.50;1.50;;;;;;;;5073799;28;45508;-62
2022/08/03 13:10:05;;;;;;;;;2.75;2.00;;;;;;;;5073940;28;45676;-61
2022/08/03 13:12:31;;;;;;;;;2.00;2.00;;;;;;;;5073494;28;46796;-62
2022/08/03 13:14:58;;;;;;;;;2.00;1.50;;;;;;;;5073712;28;45420;-62
2022/08/03 13:17:24;;;;;;;;;2.50;2.50;;;;;;;;5071650;27;45397;-61
2022/08/03 13:19:49;;;;;;;;;2.50;2.50;;;;;;;;5073536;28;45334;-63
2022/08/03 13:22:17;;;;;;;;;2.25;2.00;;;;;;;;5073665;28;45760;-63
2022/08/03 13:24:43;;;;;;;;;0.75;0.75;;;;;;;;5055492;27;45358;-62
2022/08/03 13:27:09;;;;;;;;;1.00;1.00;;;;;;;;5073359;28;45360;-62
2022/08/03 13:29:34;;;;;;;;;2.00;2.00;;;;;;;;5055412;28;45510;-63
2022/08/03 13:32:00;;;;;;;;;1.25;1.25;;;;;;;;5073553;28;46181;-63
2022/08/03 13:34:25;;;;;;;;;1.00;1.00;;;;;;;;5073489;28;45315;-62
2022/08/03 13:36:51;;;;;;;;;2.00;2.00;;;;;;;;5055002;28;45435;-62
2022/08/03 13:39:16;;;;;;;;;2.25;1.50;;;;;;;;5073227;28;45406;-62
2022/08/03 13:41:41;;;;;;;;;1.50;1.50;;;;;;;;5055009;28;47576;-63
2022/08/03 13:44:06;;;;;;;;;2.00;2.00;;;;;;;;5073264;28;45451;-62
2022/08/03 13:46:31;;;;;;;;;1.00;1.00;;;;;;;;5073515;28;45489;-62
2022/08/03 13:48:57;;;;;;;;;1.00;1.00;;;;;;;;5073610;28;45419;-62
2022/08/03 13:51:22;;;;;;;;;2.00;2.00;;;;;;;;5073048;28;46473;-63
2022/08/03 13:53:47;;;;;;;;;1.00;1.00;;;;;;;;5073305;28;45322;-63
2022/08/03 13:56:12;;;;;;;;;1.00;1.00;;;;;;;;5073305;28;45412;-62
2022/08/03 13:58:38;;;;;;;;;1.00;1.00;;;;;;;;5073286;28;45403;-62
2022/08/03 14:01:03;;;;;;;;;1.75;1.75;;;;;;;;5055158;27;47935;-63
2022/08/03 14:03:28;;;;;;;;;1.25;1.25;;;;;;;;5072993;28;45342;-62
2022/08/03 14:05:53;;;;;;;;;2.00;2.00;;;;;;;;5054870;28;45492;-62
2022/08/03 14:08:18;;;;;;;;;2.00;2.00;;;;;;;;5054905;28;45344;-63
2022/08/03 14:10:44;;;;;;;;;3.50;1.75;;;;;;;;5054733;28;47384;-62
2022/08/03 14:13:11;;;;;;;;;3.00;3.00;;;;;;;;5054830;28;45443;-62
2022/08/03 14:15:36;;;;;;;;;1.75;1.75;;;;;;;;5072928;27;45455;-62
2022/08/03 14:18:01;;;;;;;;;1.75;1.75;;;;;;;;5072509;28;45400;-62
2022/08/03 14:20:26;;;;;;;;;1.75;1.75;;;;;;;;5072587;28;46364;-63
2022/08/03 14:22:52;;;;;;;;;2.00;2.00;;;;;;;;5072717;28;46386;-63
2022/08/03 14:25:17;;;;;;;;;1.75;1.75;;;;;;;;5072971;28;45808;-62
2022/08/03 14:27:42;;;;;;;;;2.50;2.25;;;;;;;;5072344;28;45636;-63
2022/08/03 14:30:08;;;;;;;;;3.75;3.00;;;;;;;;5072412;28;46344;-62
2022/08/03 14:32:33;;;;;;;;;3.75;2.50;;;;;;;;5072548;28;45401;-63
2022/08/03 14:34:58;;;;;;;;;2.00;2.00;;;;;;;;5072551;28;45547;-61
2022/08/03 14:37:23;;;;;;;;;1.75;1.25;;;;;;;;5072530;28;45413;-62
2022/08/03 14:39:49;;;;;;;;;2.75;2.00;;;;;;;;5072373;28;45822;-63
2022/08/03 14:42:14;;;;;;;;;2.50;2.50;;;;;;;;5072411;28;45416;-63
2022/08/03 14:44:39;;;;;;;;;4.50;2.50;;;;;;;;5072451;28;45469;-63
2022/08/03 14:47:06;;;;;;;;;1.00;1.00;;;;;;;;5072609;28;45397;-62
2022/08/03 14:49:31;;;;;;;;;2.00;2.00;;;;;;;;5071121;28;45600;-63